createdAt,value
2022-11-18T00:01:58.631Z,100090.03
2022-11-18T00:04:27.897Z,100087.56
2022-11-18T00:06:57.125Z,100096.41
2022-11-18T00:09:26.517Z,100097.31
2022-11-18T00:12:14.749Z,100093.31
2022-11-18T00:14:43.871Z,100103.75
2022-11-18T00:17:13.072Z,100104.47
2022-11-18T00:19:42.416Z,100096.25
2022-11-18T00:22:14.662Z,100100.47
2022-11-18T00:24:43.726Z,100105.38
2022-11-18T00:27:14.402Z,100103.75
2022-11-18T00:29:43.510Z,100102.25
2022-11-18T00:32:12.633Z,100106.41
2022-11-18T00:34:42.370Z,100103.16
2022-11-18T00:37:11.580Z,100105.81
2022-11-18T00:39:40.674Z,100104.19
2022-11-18T00:42:27.319Z,100108.56
2022-11-18T00:44:57.780Z,100112.91
2022-11-18T00:47:27.063Z,100109.59
2022-11-18T00:49:56.178Z,100116.56
2022-11-18T00:52:25.459Z,100118.66
2022-11-18T00:54:54.619Z,100115.31
2022-11-18T00:57:23.729Z,100123.47
2022-11-18T00:59:52.978Z,100122.63
2022-11-18T01:02:23.470Z,100125.16
2022-11-18T01:04:52.737Z,100126.72
2022-11-18T01:07:21.898Z,100123.56
2022-11-18T01:09:51.137Z,100131.97
2022-11-18T01:12:37.928Z,100141.53
2022-11-18T01:15:07.875Z,100136.53
2022-11-18T01:17:38.400Z,100137.38
2022-11-18T01:20:08.562Z,100136.53
2022-11-18T01:22:37.714Z,100132.63
2022-11-18T01:25:07.647Z,100132.53
2022-11-18T01:27:36.837Z,100137.69
2022-11-18T01:30:06.718Z,100135.13
2022-11-18T01:32:37.257Z,100138.69
2022-11-18T01:35:07.151Z,100142.97
2022-11-18T01:37:36.718Z,100145.78
2022-11-18T01:40:07.472Z,100146.69
2022-11-18T01:42:37.140Z,100152.69
2022-11-18T01:45:25.234Z,100154.41
2022-11-18T01:48:02.080Z,100153.34
2022-11-18T01:50:31.988Z,100156.09
2022-11-18T01:53:07.626Z,100154.53
2022-11-18T01:55:42.773Z,100163.16
2022-11-18T01:58:19.081Z,100165.75
2022-11-18T02:00:48.247Z,100171.72
2022-11-18T02:03:18.873Z,100167.56
2022-11-18T02:05:50.230Z,100176.06
2022-11-18T02:08:21.198Z,100175.22
2022-11-18T02:10:50.551Z,100173.53
2022-11-18T02:13:20.250Z,100164.25
2022-11-18T02:15:59.484Z,100169.41
2022-11-18T02:18:42.877Z,100168.38
2022-11-18T02:21:23.657Z,100173.47
2022-11-18T02:24:29.318Z,100170.81
2022-11-18T02:27:33.057Z,100162.25
2022-11-18T02:30:05.594Z,100170.81
2022-11-18T02:32:40.518Z,100168.81
2022-11-18T02:35:16.484Z,100177.47
2022-11-18T02:37:51.114Z,100175.81
2022-11-18T02:40:25.527Z,100170.72
2022-11-18T02:43:00.338Z,100184.38
2022-11-18T02:45:33.362Z,100176.78
2022-11-18T02:48:08.798Z,100181.94
2022-11-18T02:50:39.486Z,100189.69
2022-11-18T02:53:12.722Z,100192.13
2022-11-18T02:55:44.246Z,100188.84
2022-11-18T02:58:14.957Z,100191.28
2022-11-18T03:00:46.263Z,100202.44
2022-11-18T03:03:29.654Z,100193.88
2022-11-18T03:06:08.472Z,100199.09
2022-11-18T03:08:43.260Z,100199.25
2022-11-18T03:11:18.198Z,100207.00
2022-11-18T03:14:04.454Z,100201.19
2022-11-18T03:16:41.751Z,100202.91
2022-11-18T03:19:20.659Z,100201.19
2022-11-18T03:22:00.517Z,100206.41
2022-11-18T03:24:34.617Z,100202.97
2022-11-18T03:27:12.061Z,100199.75
2022-11-18T03:29:48.956Z,100209.88
2022-11-18T03:32:25.529Z,100201.91
2022-11-18T03:35:00.572Z,100206.22
2022-11-18T03:37:32.854Z,100215.75
2022-11-18T03:40:08.003Z,100209.75
2022-11-18T03:42:40.499Z,100213.22
2022-11-18T03:45:16.041Z,100214.06
2022-11-18T03:47:53.236Z,100218.22
2022-11-18T03:50:27.352Z,100219.00
2022-11-18T03:52:57.429Z,100219.06
2022-11-18T03:55:30.148Z,100219.91
2022-11-18T03:58:04.564Z,100222.31
2022-11-18T04:00:39.403Z,100231.03
2022-11-18T04:03:11.335Z,100235.38
2022-11-18T04:05:43.364Z,100237.09
2022-11-18T04:08:21.018Z,100246.53
2022-11-18T04:10:54.969Z,100249.94
2022-11-18T04:13:28.229Z,100252.66
2022-11-18T04:15:57.843Z,100252.91
2022-11-18T04:18:28.553Z,100252.75
2022-11-18T04:20:57.665Z,100253.72
2022-11-18T04:23:26.817Z,100264.03
2022-11-18T04:25:56.392Z,100267.44
2022-11-18T04:28:25.567Z,100264.97
2022-11-18T04:30:54.705Z,100268.44
2022-11-18T04:33:23.828Z,100268.50
2022-11-18T04:35:54.358Z,100260.78
2022-11-18T04:38:23.519Z,100271.94
2022-11-18T04:40:52.631Z,100268.44
2022-11-18T04:43:21.729Z,100267.59
2022-11-18T04:45:50.997Z,100264.19
2022-11-18T04:48:20.188Z,100278.00
2022-11-18T04:50:49.394Z,100285.66
2022-11-18T04:53:20.152Z,100289.91
2022-11-18T04:55:49.459Z,100285.59
2022-11-18T04:58:18.726Z,100289.13
2022-11-18T05:00:47.813Z,100291.66
2022-11-18T05:03:17.302Z,100288.25
2022-11-18T05:05:46.466Z,100297.72
2022-11-18T05:08:15.695Z,100293.31
2022-11-18T05:10:46.145Z,100298.50
2022-11-18T05:13:14.495Z,100302.88
2022-11-18T05:15:43.624Z,100307.19
2022-11-18T05:18:13.065Z,100301.06
2022-11-18T05:20:42.408Z,100302.88
2022-11-18T05:23:11.569Z,100309.69
2022-11-18T05:25:40.736Z,100316.75
2022-11-18T05:28:11.285Z,100313.28
2022-11-18T05:30:40.451Z,100325.34
2022-11-18T05:33:09.647Z,100319.41
2022-11-18T05:35:38.972Z,100321.97
2022-11-18T05:38:08.142Z,100328.81
2022-11-18T05:40:37.558Z,100329.56
2022-11-18T05:43:11.384Z,100333.97
2022-11-18T05:45:42.002Z,100340.03
2022-11-18T05:48:11.492Z,100342.59
2022-11-18T05:50:40.611Z,100347.75
2022-11-18T05:53:09.751Z,100345.97
2022-11-18T05:55:45.403Z,100363.22
2022-11-18T05:58:14.569Z,100360.03
2022-11-18T06:00:47.404Z,100355.72
2022-11-18T06:03:26.198Z,100368.88
2022-11-18T06:06:03.122Z,100368.72
2022-11-18T06:08:36.007Z,100364.50
2022-11-18T06:11:06.713Z,100364.38
2022-11-18T06:13:40.852Z,100373.09
2022-11-18T06:16:13.380Z,100375.66
2022-11-18T06:18:43.362Z,100366.41
2022-11-18T06:21:12.905Z,100380.81
2022-11-18T06:23:43.836Z,100386.81
2022-11-18T06:26:14.583Z,100386.75
2022-11-18T06:28:45.165Z,100395.22
2022-11-18T06:31:16.587Z,100393.66
2022-11-18T06:33:45.703Z,100395.31
2022-11-18T06:36:14.921Z,100404.81
2022-11-18T06:38:44.082Z,100404.69
2022-11-18T06:41:13.339Z,100406.59
2022-11-18T06:43:41.868Z,100399.47
2022-11-18T06:46:33.116Z,100403.97
2022-11-18T06:49:03.802Z,100413.50
2022-11-18T06:51:32.966Z,100411.75
2022-11-18T06:54:07.512Z,100412.59
2022-11-18T06:56:39.980Z,100428.06
2022-11-18T06:59:09.128Z,100428.22
2022-11-18T07:01:41.058Z,100428.91
2022-11-18T07:04:10.587Z,100435.78
2022-11-18T07:06:39.676Z,100433.06
2022-11-18T07:09:09.234Z,100434.13
2022-11-18T07:11:40.351Z,100444.53
2022-11-18T07:14:09.850Z,100448.84
2022-11-18T07:16:40.353Z,100449.53
2022-11-18T07:19:14.479Z,100452.16
2022-11-18T07:21:44.932Z,100464.78
2022-11-18T07:24:15.979Z,100461.41
2022-11-18T07:26:45.373Z,100474.41
2022-11-18T07:29:14.561Z,100472.41
2022-11-18T07:31:45.072Z,100477.47
2022-11-18T07:34:14.559Z,100476.06
2022-11-18T07:36:43.737Z,100481.28
2022-11-18T07:39:12.931Z,100491.59
2022-11-18T07:41:42.278Z,100493.13
2022-11-18T07:44:13.736Z,100484.88
2022-11-18T07:46:47.663Z,100491.47
2022-11-18T07:49:17.211Z,100496.69
2022-11-18T07:51:46.520Z,100495.03
2022-11-18T07:54:17.057Z,100502.63
2022-11-18T07:56:46.633Z,100502.66
2022-11-18T07:59:16.605Z,100511.41
2022-11-18T08:01:47.439Z,100515.44
2022-11-18T08:04:17.921Z,100512.97
2022-11-18T08:06:46.964Z,100519.66
2022-11-18T08:09:16.794Z,100517.72
2022-11-18T08:11:46.177Z,100513.09
2022-11-18T08:14:15.336Z,100522.19
2022-11-18T08:16:45.777Z,100527.97
2022-11-18T08:19:15.016Z,100535.72
2022-11-18T08:21:44.220Z,100540.09
2022-11-18T08:24:13.376Z,100531.44
2022-11-18T08:26:42.553Z,100538.06
2022-11-18T08:29:12.045Z,100538.88
2022-11-18T08:31:41.308Z,100540.56
2022-11-18T08:34:12.619Z,100547.47
2022-11-18T08:36:41.825Z,100541.34
2022-11-18T08:39:12.603Z,100545.50
2022-11-18T08:41:43.315Z,100549.56
2022-11-18T08:44:14.806Z,100538.47
2022-11-18T08:46:45.478Z,100552.19
2022-11-18T08:49:16.784Z,100552.19
2022-11-18T08:51:46.181Z,100556.25
2022-11-18T08:54:15.342Z,100550.25
2022-11-18T08:56:44.526Z,100558.81
2022-11-18T08:59:14.104Z,100557.88
2022-11-18T09:01:43.640Z,100563.63
2022-11-18T09:04:12.785Z,100561.84
2022-11-18T09:06:43.504Z,100571.19
2022-11-18T09:09:12.685Z,100580.63
2022-11-18T09:11:42.293Z,100583.88
2022-11-18T09:15:11.749Z,100582.97
2022-11-18T09:17:03.111Z,100584.56
2022-11-18T09:19:46.594Z,100586.94
2022-11-18T09:22:17.972Z,100593.84
2022-11-18T09:24:47.124Z,100598.09
2022-11-18T09:27:17.625Z,100585.31
2022-11-18T09:29:47.451Z,100592.56
2022-11-18T09:32:16.640Z,100607.38
2022-11-18T09:34:45.744Z,100606.28
2022-11-18T09:37:14.854Z,100608.06
2022-11-18T09:39:45.316Z,100624.06
2022-11-18T09:42:42.111Z,100622.25
2022-11-18T09:45:24.292Z,100629.88
2022-11-18T09:47:59.931Z,100631.59
2022-11-18T09:53:22.018Z,100634.66
2022-11-18T09:55:53.539Z,100641.47
2022-11-18T09:58:31.309Z,100637.16
2022-11-18T10:01:00.756Z,100643.00
2022-11-18T10:03:32.573Z,100650.06
2022-11-18T10:06:07.161Z,100649.22
2022-11-18T10:08:46.202Z,100645.66
2022-11-18T10:11:20.584Z,100652.41
2022-11-18T10:14:01.323Z,100657.75
2022-11-18T10:16:44.822Z,100657.78
2022-11-18T10:19:26.258Z,100650.84
2022-11-18T10:22:19.487Z,100658.38
2022-11-18T10:24:54.712Z,100660.91
2022-11-18T10:27:28.305Z,100668.00
2022-11-18T10:29:59.039Z,100670.31
2022-11-18T10:32:28.222Z,100672.28
2022-11-18T10:34:59.358Z,100674.00
2022-11-18T10:40:27.412Z,100691.19
2022-11-18T10:42:58.291Z,100691.94
2022-11-18T10:45:29.724Z,100695.44
2022-11-18T10:48:01.524Z,100694.47
2022-11-18T10:50:34.620Z,100698.63
2022-11-18T10:53:04.894Z,100706.50
2022-11-18T10:55:34.603Z,100706.50
2022-11-18T10:58:11.593Z,100703.41
2022-11-18T11:00:44.060Z,100696.25
2022-11-18T11:03:44.154Z,100703.25
2022-11-18T11:06:32.159Z,100700.09
2022-11-18T11:09:04.675Z,100691.03
2022-11-18T11:11:36.036Z,100702.75
2022-11-18T11:14:28.457Z,100692.41
2022-11-18T11:17:11.123Z,100707.78
2022-11-18T11:19:49.044Z,100705.19
2022-11-18T11:22:18.784Z,100706.25
2022-11-18T11:24:48.411Z,100705.56
2022-11-18T11:30:25.768Z,100712.03
2022-11-18T11:33:19.874Z,100713.31
2022-11-18T11:35:58.321Z,100718.22
2022-11-18T11:38:36.742Z,100724.50
2022-11-18T11:41:16.039Z,100726.69
2022-11-18T11:44:03.124Z,100733.56
2022-11-18T11:47:06.482Z,100733.56
2022-11-18T11:49:52.968Z,100734.06
2022-11-18T11:52:35.097Z,100742.88
2022-11-18T11:55:17.882Z,100732.41
2022-11-18T11:58:05.346Z,100742.84
2022-11-18T12:00:40.822Z,100742.16
2022-11-18T12:03:39.612Z,100736.13
2022-11-18T12:06:10.838Z,100737.81
2022-11-18T12:08:46.957Z,100731.50
2022-11-18T12:11:22.384Z,100742.16
2022-11-18T12:13:59.756Z,100737.66
2022-11-18T12:16:37.345Z,100738.09
2022-11-18T12:19:14.536Z,100740.09
2022-11-18T12:22:00.351Z,100737.28
2022-11-18T12:24:32.239Z,100744.13
2022-11-18T12:27:03.010Z,100745.78
2022-11-18T12:29:41.946Z,100738.66
2022-11-18T12:32:29.489Z,100744.28
2022-11-18T12:35:02.720Z,100750.66
2022-11-18T12:38:00.615Z,100752.09
2022-11-18T12:40:53.165Z,100753.84
2022-11-18T12:44:04.346Z,100754.41
2022-11-18T12:46:54.279Z,100766.78
2022-11-18T12:50:12.592Z,100759.72
2022-11-18T12:52:50.688Z,100750.97
2022-11-18T12:55:32.197Z,100761.84
2022-11-18T12:58:01.397Z,100753.84
2022-11-18T13:00:52.420Z,100754.69
2022-11-18T13:03:28.728Z,100744.25
2022-11-18T13:06:05.756Z,100755.97
2022-11-18T13:08:36.555Z,100760.75
2022-11-18T13:11:41.233Z,100755.97
2022-11-18T13:14:35.316Z,100762.59
2022-11-18T13:17:41.706Z,100763.22
2022-11-18T13:20:21.968Z,100766.50
2022-11-18T13:23:10.345Z,100773.50
2022-11-18T13:25:42.526Z,100772.66
2022-11-18T13:28:23.361Z,100784.25
2022-11-18T13:30:57.923Z,100782.00
2022-11-18T13:33:27.714Z,100784.38
2022-11-18T13:35:56.908Z,100784.59
2022-11-18T13:38:28.684Z,100791.44
2022-11-18T13:41:05.224Z,100791.69
2022-11-18T13:43:35.604Z,100791.56
2022-11-18T13:46:08.327Z,100796.47
2022-11-18T13:48:42.843Z,100802.59
2022-11-18T13:51:12.960Z,100800.22
2022-11-18T13:53:43.454Z,100806.56
2022-11-18T13:56:21.362Z,100810.97
2022-11-18T13:59:16.194Z,100810.91
2022-11-18T14:01:47.819Z,100818.88
2022-11-18T14:04:22.261Z,100812.16
2022-11-18T14:06:51.497Z,100825.25
2022-11-18T14:09:25.360Z,100826.25
2022-11-18T14:15:59.184Z,100820.81
2022-11-18T14:18:32.750Z,100833.28
2022-11-18T14:21:03.350Z,100828.94
2022-11-18T14:23:34.531Z,100830.13
2022-11-18T14:26:06.410Z,100836.13
2022-11-18T14:28:37.685Z,100843.19
2022-11-18T14:31:25.439Z,100838.81
2022-11-18T14:34:17.443Z,100849.16
2022-11-18T14:36:46.952Z,100851.84
2022-11-18T14:39:27.617Z,100851.31
2022-11-18T14:41:57.604Z,100860.41
2022-11-18T14:44:30.510Z,100857.81
2022-11-18T14:47:03.452Z,100858.13
2022-11-18T14:49:33.961Z,100854.69
2022-11-18T14:52:04.509Z,100857.72
2022-11-18T14:54:34.091Z,100861.56
2022-11-18T14:57:05.499Z,100864.41
2022-11-18T14:59:34.888Z,100870.59
2022-11-18T15:02:05.422Z,100874.53
2022-11-18T15:04:34.844Z,100881.66
2022-11-18T15:07:03.984Z,100884.19
2022-11-18T15:09:33.104Z,100883.75
2022-11-18T15:12:03.574Z,100885.66
2022-11-18T15:14:32.661Z,100894.59
2022-11-18T15:17:01.751Z,100900.38
2022-11-18T15:19:32.441Z,100903.81
2022-11-18T15:22:01.542Z,100905.28
2022-11-18T15:24:30.669Z,100906.66
2022-11-18T15:26:59.968Z,100919.50
2022-11-18T15:29:29.405Z,100914.69
2022-11-18T15:31:58.602Z,100915.97
2022-11-18T15:34:27.627Z,100921.47
2022-11-18T15:36:58.052Z,100921.44
2022-11-18T15:39:27.435Z,100921.63
2022-11-18T15:41:56.584Z,100923.97
2022-11-18T15:44:25.701Z,100921.63
2022-11-18T15:46:55.431Z,100930.91
2022-11-18T15:49:24.549Z,100928.97
2022-11-18T15:51:53.578Z,100932.31
2022-11-18T15:54:24.117Z,100939.56
2022-11-18T15:56:53.156Z,100933.88
2022-11-18T15:59:22.249Z,100937.44
2022-11-18T16:02:02.019Z,100943.13
2022-11-18T16:04:31.123Z,100944.34
2022-11-18T16:07:01.101Z,100944.34
2022-11-18T16:09:45.804Z,100956.41
2022-11-18T16:12:32.239Z,100957.19
2022-11-18T16:15:18.701Z,100964.56
2022-11-18T16:17:47.949Z,100965.41
2022-11-18T16:20:17.232Z,100971.59
2022-11-18T16:22:46.276Z,100972.31
2022-11-18T16:25:16.766Z,100970.75
2022-11-18T16:27:45.822Z,100969.34
2022-11-18T16:30:29.216Z,100971.88
2022-11-18T16:32:58.414Z,100974.31
2022-11-18T16:35:27.664Z,100976.44
2022-11-18T16:37:56.852Z,100981.16
2022-11-18T16:40:28.521Z,100991.19
2022-11-18T16:42:57.750Z,100998.13
2022-11-18T16:45:26.868Z,101002.00
2022-11-18T16:47:55.969Z,100997.41
2022-11-18T16:50:25.089Z,100991.88
2022-11-18T16:52:54.114Z,100998.59
2022-11-18T16:55:23.120Z,101004.25
2022-11-18T16:57:53.487Z,101010.16
2022-11-18T17:00:37.980Z,101017.44
2022-11-18T17:03:11.773Z,101017.81
2022-11-18T17:05:40.877Z,101012.75
2022-11-18T17:08:09.988Z,101011.03
2022-11-18T17:10:39.021Z,101007.88
2022-11-18T17:13:09.496Z,101017.03
2022-11-18T17:15:38.506Z,101008.88
2022-11-18T17:18:07.592Z,101013.56
2022-11-18T17:20:36.783Z,101013.91
2022-11-18T17:23:06.375Z,101017.25
2022-11-18T17:25:35.618Z,101017.84
2022-11-18T17:28:04.833Z,101015.47
2022-11-18T17:30:35.375Z,101024.81
2022-11-18T17:33:04.548Z,101033.75
2022-11-18T17:35:33.697Z,101039.94
2022-11-18T17:38:02.833Z,101040.72
2022-11-18T17:40:31.910Z,101038.09
2022-11-18T17:43:01.088Z,101047.81
2022-11-18T17:45:30.229Z,101045.09
2022-11-18T17:48:00.661Z,101052.34
2022-11-18T17:50:29.909Z,101052.34
2022-11-18T17:52:59.000Z,101054.13
2022-11-18T17:55:28.041Z,101048.44
2022-11-18T17:57:57.137Z,101046.97
2022-11-18T18:00:26.264Z,101050.44
2022-11-18T18:02:55.375Z,101059.81
2022-11-18T18:05:26.590Z,101060.66
2022-11-18T18:07:57.734Z,101055.81
2022-11-18T18:10:27.449Z,101061.06
2022-11-18T18:13:13.939Z,101057.94
2022-11-18T18:15:43.014Z,101065.78
2022-11-18T18:18:12.103Z,101077.78
2022-11-18T18:20:42.568Z,101078.78
2022-11-18T18:23:11.648Z,101092.78
2022-11-18T18:25:40.731Z,101092.00
2022-11-18T18:28:09.762Z,101095.31
2022-11-18T18:30:38.812Z,101098.88
2022-11-18T18:33:07.875Z,101092.31
2022-11-18T18:35:42.762Z,101098.44
2022-11-18T18:38:11.983Z,101096.75
2022-11-18T18:40:41.039Z,101100.22
2022-11-18T18:43:10.248Z,101105.56
2022-11-18T18:45:56.977Z,101107.56
2022-11-18T18:48:26.346Z,101116.97
2022-11-18T18:51:05.069Z,101108.56
2022-11-18T18:53:35.236Z,101108.00
2022-11-18T18:56:08.507Z,101106.25
2022-11-18T18:58:38.373Z,101097.41
2022-11-18T19:01:09.420Z,101087.38
2022-11-18T19:03:40.307Z,101086.53
2022-11-18T19:06:51.576Z,101084.03
2022-11-18T19:09:11.496Z,101086.63
2022-11-18T19:11:59.517Z,101095.13
2022-11-18T19:14:29.239Z,101092.78
2022-11-18T19:16:58.424Z,101095.94
2022-11-18T19:19:58.433Z,101095.28
2022-11-18T19:22:31.761Z,101101.22
2022-11-18T19:25:02.109Z,101111.13
2022-11-18T19:27:31.639Z,101109.72
2022-11-18T19:30:02.270Z,101123.25
2022-11-18T19:32:41.415Z,101127.19
2022-11-18T19:35:11.589Z,101134.38
2022-11-18T19:37:42.373Z,101143.16
2022-11-18T19:40:12.538Z,101148.28
2022-11-18T19:42:42.791Z,101149.94
2022-11-18T19:45:12.609Z,101150.09
2022-11-18T19:47:41.673Z,101156.19
2022-11-18T19:50:11.159Z,101156.88
2022-11-18T19:52:41.569Z,101154.59
2022-11-18T19:55:11.111Z,101157.97
2022-11-18T19:57:40.287Z,101158.19
2022-11-18T20:00:10.803Z,101159.81
2022-11-18T20:02:40.302Z,101158.31
2022-11-18T20:05:29.614Z,101171.06
2022-11-18T20:08:00.087Z,101176.50
2022-11-18T20:10:29.591Z,101180.81
2022-11-18T20:12:58.685Z,101173.75
2022-11-18T20:15:27.817Z,101173.09
2022-11-18T20:17:57.232Z,101174.81
2022-11-18T20:20:26.364Z,101186.25
2022-11-18T20:22:55.743Z,101182.81
2022-11-18T20:25:26.199Z,101181.88
2022-11-18T20:27:55.567Z,101185.19
2022-11-18T20:30:24.744Z,101188.97
2022-11-18T20:32:53.829Z,101199.41
2022-11-18T20:35:23.017Z,101196.13
2022-11-18T20:37:52.088Z,101192.78
2022-11-18T20:40:21.448Z,101195.53
2022-11-18T20:43:09.285Z,101197.00
2022-11-18T20:45:38.652Z,101197.13
2022-11-18T20:48:08.097Z,101196.44
2022-11-18T20:50:38.684Z,101197.25
2022-11-18T20:53:08.023Z,101206.59
2022-11-18T20:55:38.266Z,101209.25
2022-11-18T20:58:08.797Z,101215.44
2022-11-18T21:00:37.925Z,101211.06
2022-11-18T21:03:12.550Z,101218.03
2022-11-18T21:05:42.199Z,101218.31
2022-11-18T21:08:11.581Z,101218.59
2022-11-18T21:10:41.600Z,101217.84
2022-11-18T21:13:29.790Z,101220.41
2022-11-18T21:15:58.899Z,101227.34
2022-11-18T21:18:30.769Z,101232.56
2022-11-18T21:21:17.286Z,101241.84
2022-11-18T21:23:46.679Z,101235.13
2022-11-18T21:26:18.890Z,101242.72
2022-11-18T21:28:50.675Z,101235.28
2022-11-18T21:31:23.248Z,101244.78
2022-11-18T21:33:53.179Z,101248.91
2022-11-18T21:36:24.358Z,101245.50
2022-11-18T21:38:54.046Z,101256.88
2022-11-18T21:41:23.115Z,101252.66
2022-11-18T21:44:09.254Z,101244.03
2022-11-18T21:46:40.296Z,101253.28
2022-11-18T21:49:10.019Z,101250.91
2022-11-18T21:51:39.254Z,101252.75
2022-11-18T21:54:08.651Z,101251.66
2022-11-18T21:56:37.961Z,101262.94
2022-11-18T21:59:08.690Z,101254.41
2022-11-18T22:01:37.995Z,101263.78
2022-11-18T22:04:07.992Z,101270.88
2022-11-18T22:06:37.093Z,101269.94
2022-11-18T22:09:06.483Z,101265.16
2022-11-18T22:11:35.709Z,101278.16
2022-11-18T22:14:07.872Z,101269.38
2022-11-18T22:16:38.278Z,101276.38
2022-11-18T22:19:19.533Z,101279.00
2022-11-18T22:21:48.675Z,101282.75
2022-11-18T22:24:17.768Z,101272.00
2022-11-18T22:26:46.849Z,101266.88
2022-11-18T22:29:16.160Z,101264.38
2022-11-18T22:31:46.988Z,101267.03
2022-11-18T22:34:16.238Z,101273.78
2022-11-18T22:36:45.468Z,101268.56
2022-11-18T22:39:14.521Z,101277.91
2022-11-18T22:42:01.039Z,101281.91
2022-11-18T22:44:30.124Z,101279.59
2022-11-18T22:47:00.577Z,101277.19
2022-11-18T22:49:29.644Z,101291.97
2022-11-18T22:51:58.774Z,101291.38
2022-11-18T22:54:43.215Z,101292.44
2022-11-18T22:57:12.381Z,101292.59
2022-11-18T22:59:41.449Z,101292.78
2022-11-18T23:02:11.946Z,101291.94
2022-11-18T23:04:40.972Z,101294.44
2022-11-18T23:07:10.280Z,101297.16
2022-11-18T23:09:39.374Z,101300.91
2022-11-18T23:12:26.080Z,101303.72
2022-11-18T23:14:55.222Z,101297.13
2022-11-18T23:17:25.782Z,101300.22
2022-11-18T23:19:54.941Z,101311.06
2022-11-18T23:22:23.958Z,101318.13
2022-11-18T23:24:53.021Z,101324.97
2022-11-18T23:27:22.059Z,101326.69
2022-11-18T23:29:51.149Z,101330.16
2022-11-18T23:32:20.242Z,101329.53
2022-11-18T23:34:50.700Z,101335.44
2022-11-18T23:37:19.810Z,101333.72
2022-11-18T23:39:48.962Z,101339.03
2022-11-18T23:42:18.029Z,101329.72
2022-11-18T23:44:47.160Z,101325.34
2022-11-18T23:47:16.248Z,101328.66
2022-11-18T23:49:45.324Z,101329.47
2022-11-18T23:52:15.763Z,101333.66
2022-11-18T23:54:44.975Z,101328.59
2022-11-18T23:57:14.192Z,101322.72
2022-11-18T23:59:43.288Z,101327.63
